Time;durP1;ratioP1;P1;durP2;ratioP2;P2;SDS_P1;SDS_P2;PMS_P1;PMS_P2;Temp;Humidity;BMP_temperature;BMP_pressure;BME280_temperature;BME280_humidity;BME280_pressure;Samples;Min_cycle;Max_cycle;Signal;HPM_P1;HPM_P2
2022/02/26 00:01:17;;;;;;;27.48;3.65;;;1.40;99.90;;;;;;5102202;28;20039;-70
2022/02/26 00:03:43;;;;;;;34.60;6.05;;;1.30;99.90;;;;;;5099219;28;20052;-69
2022/02/26 00:06:09;;;;;;;28.65;4.40;;;1.40;99.90;;;;;;5105451;28;20035;-70
2022/02/26 00:08:34;;;;;;;27.80;4.05;;;1.50;99.90;;;;;;5104154;28;20443;-70
2022/02/26 00:11:00;;;;;;;29.70;4.38;;;1.50;99.90;;;;;;5103981;28;20113;-69
2022/02/26 00:13:26;;;;;;;26.13;3.75;;;1.40;99.90;;;;;;5100191;28;20470;-69
2022/02/26 00:15:52;;;;;;;25.83;4.38;;;1.20;99.90;;;;;;5104313;28;20047;-70
2022/02/26 00:18:18;;;;;;;26.90;4.03;;;1.30;99.90;;;;;;5104737;28;20062;-70
2022/02/26 00:20:43;;;;;;;27.52;5.50;;;1.30;99.90;;;;;;5105235;28;20051;-69
2022/02/26 00:23:09;;;;;;;28.05;4.72;;;1.30;99.90;;;;;;5103380;28;20100;-70
2022/02/26 00:25:35;;;;;;;24.85;4.35;;;1.60;99.90;;;;;;5104709;28;20079;-70
2022/02/26 00:28:01;;;;;;;26.88;4.25;;;1.30;99.90;;;;;;5106786;28;20082;-69
2022/02/26 00:30:26;;;;;;;40.70;4.35;;;1.30;99.90;;;;;;5104336;28;20044;-69
2022/02/26 00:32:52;;;;;;;24.60;3.80;;;1.40;99.90;;;;;;5103971;28;20052;-69
2022/02/26 00:35:18;;;;;;;35.40;5.00;;;1.60;99.90;;;;;;5104450;28;20047;-69
2022/02/26 00:37:43;;;;;;;24.10;4.15;;;1.30;99.90;;;;;;5104154;28;20522;-69
2022/02/26 00:40:10;;;;;;;25.23;4.55;;;1.50;99.90;;;;;;5104646;28;20032;-69
2022/02/26 00:42:35;;;;;;;28.35;5.13;;;1.50;99.90;;;;;;5091356;28;20071;-69
2022/02/26 00:45:01;;;;;;;30.80;4.80;;;1.30;99.90;;;;;;5096216;28;20483;-69
2022/02/26 00:47:27;;;;;;;33.13;5.75;;;1.50;99.90;;;;;;5103788;28;20035;-69
2022/02/26 00:49:53;;;;;;;28.42;4.75;;;1.30;99.90;;;;;;5103865;28;20052;-70
2022/02/26 00:52:21;;;;;;;35.88;4.43;;;1.20;99.90;;;;;;5102108;28;20547;-69
2022/02/26 00:54:47;;;;;;;30.13;4.93;;;1.30;99.90;;;;;;5092799;28;20107;-70
2022/02/26 00:57:14;;;;;;;31.60;5.47;;;1.30;99.90;;;;;;5102815;28;20048;-69
2022/02/26 00:59:39;;;;;;;30.13;4.90;;;1.30;99.90;;;;;;5101890;28;20042;-69
2022/02/26 01:02:06;;;;;;;26.70;4.47;;;1.20;99.90;;;;;;5103711;28;20098;-69
2022/02/26 01:04:33;;;;;;;28.55;5.55;;;1.20;99.90;;;;;;5102835;28;20059;-70
2022/02/26 01:06:58;;;;;;;30.42;5.97;;;1.30;99.90;;;;;;5103267;28;20051;-69
2022/02/26 01:09:24;;;;;;;33.60;4.13;;;1.40;99.90;;;;;;5080426;28;20044;-70
2022/02/26 01:11:50;;;;;;;29.85;4.65;;;1.50;99.90;;;;;;5097385;28;20052;-70
2022/02/26 01:14:16;;;;;;;31.33;5.20;;;1.30;99.90;;;;;;5102683;28;20047;-69
2022/02/26 01:16:42;;;;;;;29.17;4.65;;;1.50;99.90;;;;;;5102823;28;20482;-69
2022/02/26 01:19:07;;;;;;;36.55;6.45;;;1.70;99.90;;;;;;5100828;28;20031;-70
2022/02/26 01:21:33;;;;;;;29.35;4.50;;;1.70;99.90;;;;;;5103765;28;20055;-69
2022/02/26 01:24:00;;;;;;;22.27;5.28;;;1.90;99.90;;;;;;5098396;28;20123;-69
2022/02/26 01:26:26;;;;;;;31.27;4.60;;;1.60;99.90;;;;;;5103966;28;20701;-69
2022/02/26 01:28:52;;;;;;;33.55;5.60;;;1.70;99.90;;;;;;5096495;28;20087;-69
2022/02/26 01:31:18;;;;;;;37.53;4.82;;;1.30;99.90;;;;;;5102351;28;20079;-69
2022/02/26 01:33:44;;;;;;;21.13;3.83;;;1.20;99.90;;;;;;5078855;28;20044;-69
2022/02/26 01:36:10;;;;;;;31.55;5.95;;;1.40;99.90;;;;;;5079696;28;20162;-70
2022/02/26 01:38:36;;;;;;;30.50;4.32;;;1.30;99.90;;;;;;5102490;28;20036;-69
2022/02/26 01:41:03;;;;;;;26.63;3.78;;;1.40;99.90;;;;;;5101839;28;20052;-69
2022/02/26 01:43:29;;;;;;;29.77;4.25;;;1.30;99.90;;;;;;5102480;28;20055;-70
2022/02/26 01:45:55;;;;;;;27.48;4.90;;;1.00;99.90;;;;;;5103859;28;20048;-69
2022/02/26 01:48:21;;;;;;;29.95;4.47;;;0.90;99.90;;;;;;5101857;28;20052;-69
2022/02/26 01:50:47;;;;;;;28.52;5.28;;;0.80;99.90;;;;;;5103871;28;20103;-69
2022/02/26 01:53:13;;;;;;;22.73;4.18;;;0.70;99.90;;;;;;5102769;28;20044;-69
2022/02/26 01:55:39;;;;;;;37.15;4.90;;;0.90;99.90;;;;;;5074761;28;20049;-69
2022/02/26 01:58:05;;;;;;;33.92;4.85;;;1.00;99.90;;;;;;5097696;28;20046;-69
2022/02/26 02:00:31;;;;;;;35.45;4.35;;;0.90;99.90;;;;;;5101647;28;20079;-69
2022/02/26 02:02:58;;;;;;;33.63;5.95;;;0.90;99.90;;;;;;5091637;28;20049;-69
2022/02/26 02:05:29;;;;;;;26.70;4.30;;;1.00;99.90;;;;;;5093494;28;20040;-69
2022/02/26 02:07:55;;;;;;;36.13;4.65;;;0.90;99.90;;;;;;5085124;28;20048;-69
2022/02/26 02:10:22;;;;;;;35.50;4.88;;;1.10;99.90;;;;;;5102705;28;20107;-69
2022/02/26 02:12:47;;;;;;;25.17;4.50;;;1.10;99.90;;;;;;5101828;28;20089;-69
2022/02/26 02:15:13;;;;;;;40.15;6.15;;;0.90;99.90;;;;;;5101858;28;20036;-69
2022/02/26 02:17:43;;;;;;;31.92;4.60;;;0.90;99.90;;;;;;5098297;28;20051;-69
2022/02/26 02:20:10;;;;;;;25.42;4.45;;;0.80;99.90;;;;;;5096280;28;20402;-69
2022/02/26 02:22:35;;;;;;;23.77;4.40;;;0.90;99.90;;;;;;5102720;28;20054;-69
2022/02/26 02:25:03;;;;;;;33.63;4.80;;;0.80;99.90;;;;;;5106926;28;20056;-69
2022/02/26 02:27:29;;;;;;;31.27;4.78;;;1.00;99.90;;;;;;5108983;28;20078;-69
2022/02/26 02:29:55;;;;;;;29.73;4.90;;;1.10;99.90;;;;;;5099110;28;20044;-69
2022/02/26 02:32:21;;;;;;;34.35;4.05;;;1.00;99.90;;;;;;5106721;28;20508;-69
2022/02/26 02:34:47;;;;;;;29.08;4.30;;;1.20;99.90;;;;;;5085530;28;20046;-69
2022/02/26 02:37:13;;;;;;;29.38;4.60;;;1.00;99.90;;;;;;5091552;28;20041;-69
2022/02/26 02:39:42;;;;;;;25.15;4.13;;;1.00;99.90;;;;;;5099875;28;20070;-69
2022/02/26 02:42:07;;;;;;;32.45;5.72;;;0.90;99.90;;;;;;5099280;28;20040;-69
2022/02/26 02:44:33;;;;;;;23.42;3.80;;;1.20;99.90;;;;;;5105703;28;20043;-69
2022/02/26 02:46:59;;;;;;;20.52;3.45;;;1.00;99.90;;;;;;5107242;28;20378;-69
2022/02/26 02:49:25;;;;;;;23.40;4.22;;;1.00;99.90;;;;;;5108042;28;20058;-69
2022/02/26 02:51:51;;;;;;;27.33;4.03;;;0.60;99.90;;;;;;5104816;28;20044;-69
2022/02/26 02:54:17;;;;;;;20.33;3.75;;;0.90;99.90;;;;;;5088646;28;20063;-69
2022/02/26 02:56:42;;;;;;;24.85;4.15;;;0.80;99.90;;;;;;5094086;28;20074;-69
2022/02/26 02:59:09;;;;;;;27.58;5.28;;;0.70;99.90;;;;;;5105087;28;20086;-69
2022/02/26 03:01:36;;;;;;;28.90;5.28;;;0.90;99.90;;;;;;5107135;28;20119;-69
2022/02/26 03:04:01;;;;;;;22.80;4.63;;;0.90;99.90;;;;;;5096474;28;20043;-69
2022/02/26 03:06:28;;;;;;;21.10;5.00;;;0.90;99.90;;;;;;5105850;28;20127;-69
2022/02/26 03:08:53;;;;;;;21.20;3.70;;;0.80;99.90;;;;;;5105312;28;20058;-69
2022/02/26 03:11:20;;;;;;;32.53;6.35;;;1.00;99.90;;;;;;5106436;28;20051;-69
2022/02/26 03:13:46;;;;;;;27.17;4.43;;;0.60;99.90;;;;;;5104118;28;20100;-69
2022/02/26 03:16:13;;;;;;;26.60;4.70;;;0.50;99.90;;;;;;5101371;28;20096;-69
2022/02/26 03:18:38;;;;;;;27.33;3.97;;;0.60;99.90;;;;;;5105457;28;20043;-69
2022/02/26 03:21:05;;;;;;;26.65;4.38;;;0.70;99.90;;;;;;5105595;28;20051;-69
2022/02/26 03:23:31;;;;;;;35.15;5.65;;;0.70;99.90;;;;;;5104213;28;20044;-70
2022/02/26 03:25:56;;;;;;;24.52;4.45;;;0.60;99.90;;;;;;5100795;28;20072;-69
2022/02/26 03:28:22;;;;;;;23.00;3.30;;;0.90;99.90;;;;;;5096961;28;20054;-69
2022/02/26 03:30:49;;;;;;;15.30;3.33;;;0.90;99.90;;;;;;5105324;28;20145;-69
2022/02/26 03:33:15;;;;;;;23.73;4.57;;;0.80;99.90;;;;;;5104551;28;20048;-69
2022/02/26 03:35:41;;;;;;;25.35;3.95;;;0.80;99.90;;;;;;5103802;28;20056;-69
2022/02/26 03:38:08;;;;;;;23.52;3.30;;;0.60;99.90;;;;;;5106435;28;20237;-69
2022/02/26 03:40:34;;;;;;;23.83;3.90;;;0.80;99.90;;;;;;5105876;28;20044;-69
2022/02/26 03:43:00;;;;;;;21.23;3.75;;;0.80;99.90;;;;;;5105356;28;20063;-69
2022/02/26 03:45:26;;;;;;;28.90;3.60;;;0.80;99.90;;;;;;5099758;28;20051;-69
2022/02/26 03:47:52;;;;;;;24.95;3.90;;;0.70;99.90;;;;;;5104917;28;20071;-69
2022/02/26 03:50:18;;;;;;;23.70;4.38;;;0.70;99.90;;;;;;5080728;28;20036;-69
2022/02/26 03:52:43;;;;;;;20.35;4.10;;;0.50;99.90;;;;;;5104621;28;20040;-69
2022/02/26 03:55:10;;;;;;;27.48;4.47;;;0.70;99.90;;;;;;5105571;28;20052;-69
2022/02/26 03:57:36;;;;;;;25.80;4.18;;;0.60;99.90;;;;;;5104407;28;20479;-69
2022/02/26 04:00:04;;;;;;;23.33;3.45;;;0.60;99.90;;;;;;5103943;28;20112;-69
2022/02/26 04:02:30;;;;;;;18.85;4.75;;;0.60;99.90;;;;;;5102791;28;20495;-69
2022/02/26 04:04:55;;;;;;;19.55;3.53;;;0.30;99.90;;;;;;5105584;28;20047;-69
2022/02/26 04:07:21;;;;;;;20.98;3.92;;;0.50;99.90;;;;;;5105001;28;20052;-69
2022/02/26 04:09:47;;;;;;;22.33;4.20;;;0.20;99.90;;;;;;5105064;28;20126;-69
2022/02/26 04:12:12;;;;;;;23.15;3.92;;;0.30;99.90;;;;;;5105231;28;20040;-69
2022/02/26 04:14:38;;;;;;;23.10;3.50;;;0.30;99.90;;;;;;5104891;28;20052;-69
2022/02/26 04:17:04;;;;;;;16.17;3.53;;;0.10;99.90;;;;;;5102927;28;20048;-69
2022/02/26 04:19:29;;;;;;;27.42;4.30;;;0.20;99.90;;;;;;5103347;28;20058;-69
2022/02/26 04:21:55;;;;;;;16.80;3.47;;;-0.40;99.90;;;;;;5096450;28;20403;-69
2022/02/26 04:24:21;;;;;;;14.70;4.13;;;-0.20;99.90;;;;;;5102917;28;20064;-69
2022/02/26 04:26:47;;;;;;;16.23;4.30;;;-0.30;99.90;;;;;;5102688;28;20037;-69
2022/02/26 04:29:13;;;;;;;23.35;4.28;;;-0.30;99.90;;;;;;5098155;28;20093;-69
2022/02/26 04:31:40;;;;;;;20.33;3.13;;;-0.40;99.90;;;;;;5101850;28;20044;-69
2022/02/26 04:34:05;;;;;;;17.63;3.90;;;-0.20;99.90;;;;;;5103242;28;20391;-69
2022/02/26 04:36:31;;;;;;;24.15;3.95;;;-0.20;99.90;;;;;;5099711;28;20090;-69
2022/02/26 04:38:57;;;;;;;16.85;3.60;;;-0.30;99.90;;;;;;5103500;28;20052;-69
2022/02/26 04:41:23;;;;;;;33.35;4.82;;;0.00;99.90;;;;;;5103041;28;20047;-69
2022/02/26 04:43:50;;;;;;;24.10;3.85;;;-0.20;99.90;;;;;;5103071;28;20381;-69
2022/02/26 04:46:15;;;;;;;26.13;3.92;;;-0.20;99.90;;;;;;5102649;28;20050;-69
2022/02/26 04:48:41;;;;;;;17.50;4.32;;;-0.30;99.90;;;;;;5097422;28;20135;-69
2022/02/26 04:51:08;;;;;;;17.88;3.50;;;-0.10;99.90;;;;;;5096588;28;20044;-69
2022/02/26 04:53:38;;;;;;;26.48;5.40;;;-0.10;99.90;;;;;;5101511;28;20040;-69
2022/02/26 04:56:06;;;;;;;22.92;3.92;;;-0.10;99.90;;;;;;5093999;28;20049;-69
2022/02/26 04:58:32;;;;;;;23.23;4.50;;;-0.30;99.90;;;;;;5076568;28;20048;-69
2022/02/26 05:00:58;;;;;;;25.20;4.07;;;-0.40;99.90;;;;;;5103166;28;20080;-69
2022/02/26 05:03:24;;;;;;;30.77;5.50;;;-0.30;99.90;;;;;;5100350;28;20048;-69
2022/02/26 05:05:50;;;;;;;35.95;5.93;;;-0.10;99.90;;;;;;5103154;28;20099;-69
2022/02/26 05:08:16;;;;;;;21.67;3.58;;;0.00;99.90;;;;;;5102315;28;20072;-69
2022/02/26 05:10:43;;;;;;;26.58;3.65;;;0.10;99.90;;;;;;5079909;28;20044;-69
2022/02/26 05:13:09;;;;;;;26.52;3.97;;;-0.20;99.90;;;;;;5091635;28;20043;-69
2022/02/26 05:15:35;;;;;;;24.40;3.42;;;0.10;99.90;;;;;;5103446;28;20044;-69
2022/02/26 05:18:01;;;;;;;30.17;3.95;;;-0.10;99.90;;;;;;5100179;28;20093;-69
2022/02/26 05:20:27;;;;;;;25.05;4.88;;;0.00;99.90;;;;;;5099958;28;20040;-69
2022/02/26 05:22:52;;;;;;;19.02;3.45;;;-0.10;99.90;;;;;;5102048;28;20492;-69
2022/02/26 05:25:18;;;;;;;22.83;3.38;;;0.20;99.90;;;;;;5101996;28;20063;-69
2022/02/26 05:27:44;;;;;;;20.48;3.42;;;0.10;99.90;;;;;;5101125;28;20127;-69
2022/02/26 05:30:12;;;;;;;22.95;3.83;;;-0.20;99.90;;;;;;5099619;28;20079;-69
2022/02/26 05:32:39;;;;;;;24.38;4.43;;;0.20;99.90;;;;;;5102900;28;20108;-69
2022/02/26 05:35:06;;;;;;;25.08;3.65;;;-0.10;99.90;;;;;;5102699;28;20052;-69
2022/02/26 05:37:31;;;;;;;19.23;3.40;;;0.10;99.90;;;;;;5102146;28;20052;-69
2022/02/26 05:39:57;;;;;;;19.30;4.70;;;0.00;99.90;;;;;;5103639;28;20075;-69
2022/02/26 05:42:23;;;;;;;21.42;5.25;;;0.20;99.90;;;;;;5103447;28;20055;-69
2022/02/26 05:44:49;;;;;;;12.82;3.10;;;0.10;99.90;;;;;;5102578;28;20084;-69
2022/02/26 05:47:14;;;;;;;24.73;5.03;;;0.30;99.90;;;;;;5102359;28;20032;-69
2022/02/26 05:49:40;;;;;;;19.50;3.63;;;0.00;99.90;;;;;;5102047;28;20099;-69
2022/02/26 05:52:06;;;;;;;18.98;4.07;;;-0.10;99.90;;;;;;5102317;28;20099;-69
2022/02/26 05:54:33;;;;;;;23.10;4.00;;;0.00;99.90;;;;;;5103061;28;20441;-69
2022/02/26 05:56:58;;;;;;;24.40;4.97;;;0.10;99.90;;;;;;5095385;28;20124;-69
2022/02/26 05:59:24;;;;;;;20.48;2.95;;;0.10;99.90;;;;;;5104925;28;20036;-69
2022/02/26 06:01:50;;;;;;;19.38;3.78;;;0.00;99.90;;;;;;5102445;28;20045;-69
2022/02/26 06:04:16;;;;;;;28.38;4.47;;;-0.10;99.90;;;;;;5100476;28;20074;-69
2022/02/26 06:06:42;;;;;;;24.50;3.15;;;-0.10;99.90;;;;;;5105905;28;20043;-69
2022/02/26 06:09:07;;;;;;;26.00;3.90;;;-0.10;99.90;;;;;;5106357;28;20166;-69
2022/02/26 06:11:33;;;;;;;17.98;3.33;;;-0.40;99.90;;;;;;5106065;28;20048;-69
2022/02/26 06:13:59;;;;;;;20.25;2.97;;;-0.10;99.90;;;;;;5106133;28;20077;-69
2022/02/26 06:16:25;;;;;;;21.55;3.85;;;-0.10;99.90;;;;;;5099790;28;20039;-69
2022/02/26 06:18:50;;;;;;;25.90;4.00;;;-0.30;99.90;;;;;;5106279;28;20249;-69
2022/02/26 06:21:16;;;;;;;21.85;4.32;;;-0.40;99.90;;;;;;5105740;28;20105;-69
2022/02/26 06:23:42;;;;;;;21.95;4.50;;;-0.10;99.90;;;;;;5106747;28;20051;-69
2022/02/26 06:26:07;;;;;;;26.58;4.32;;;-0.10;99.90;;;;;;5102814;28;20056;-69
2022/02/26 06:28:33;;;;;;;18.98;3.55;;;-0.10;99.90;;;;;;5102285;28;20063;-69
2022/02/26 06:30:59;;;;;;;19.13;3.72;;;-0.20;99.90;;;;;;5107762;28;20084;-69
2022/02/26 06:33:25;;;;;;;17.88;3.85;;;-0.10;99.90;;;;;;5078133;28;20040;-69
2022/02/26 06:35:52;;;;;;;24.02;3.95;;;-0.30;99.90;;;;;;5100934;28;20070;-69
2022/02/26 06:38:18;;;;;;;26.80;3.38;;;-0.40;99.90;;;;;;5100485;28;20086;-69
2022/02/26 06:40:44;;;;;;;19.55;4.10;;;-0.40;99.90;;;;;;5106918;28;20052;-69
2022/02/26 06:43:09;;;;;;;21.88;4.25;;;-0.10;99.90;;;;;;5106673;28;20054;-69
2022/02/26 06:45:35;;;;;;;33.33;5.15;;;-0.30;99.90;;;;;;5106499;28;20100;-69
2022/02/26 06:48:01;;;;;;;25.13;3.67;;;-0.40;99.90;;;;;;5087314;28;20052;-69
2022/02/26 06:50:27;;;;;;;20.67;3.92;;;-0.10;99.90;;;;;;5095544;28;20044;-69
2022/02/26 06:52:52;;;;;;;24.05;3.30;;;-0.20;99.90;;;;;;5105047;28;20511;-69
2022/02/26 06:55:18;;;;;;;22.30;3.75;;;-0.10;99.90;;;;;;5105767;28;20047;-69
2022/02/26 06:57:44;;;;;;;20.90;4.43;;;-0.40;99.90;;;;;;5087277;28;20059;-69
2022/02/26 07:00:13;;;;;;;17.55;3.95;;;-0.30;99.90;;;;;;5103605;28;20048;-69
2022/02/26 07:02:39;;;;;;;22.27;4.78;;;-0.10;99.90;;;;;;5099176;28;20041;-69
2022/02/26 07:05:05;;;;;;;22.52;3.95;;;-0.30;99.90;;;;;;5107486;28;20055;-69
2022/02/26 07:07:31;;;;;;;23.55;4.03;;;-0.20;99.90;;;;;;5089792;28;20055;-69
2022/02/26 07:09:57;;;;;;;21.80;3.83;;;-0.10;99.90;;;;;;5089733;28;20080;-69
2022/02/26 07:12:23;;;;;;;27.20;4.28;;;0.00;99.90;;;;;;5107079;28;20043;-69
2022/02/26 07:14:49;;;;;;;16.33;3.28;;;-0.10;99.90;;;;;;5090563;28;20115;-69
2022/02/26 07:17:16;;;;;;;28.58;4.38;;;0.10;99.90;;;;;;5087602;28;20037;-69
2022/02/26 07:19:42;;;;;;;28.05;4.30;;;0.10;99.90;;;;;;5105950;28;20060;-69
2022/02/26 07:22:07;;;;;;;28.08;4.28;;;-0.10;99.90;;;;;;5107359;28;20050;-69
2022/02/26 07:24:33;;;;;;;20.52;3.30;;;0.30;99.90;;;;;;5107195;28;20139;-69
2022/02/26 07:26:59;;;;;;;20.13;4.15;;;0.20;99.90;;;;;;5104884;28;20048;-69
2022/02/26 07:29:25;;;;;;;24.50;4.75;;;0.50;99.90;;;;;;5106221;28;20074;-69
2022/02/26 07:31:50;;;;;;;20.33;5.97;;;0.50;99.90;;;;;;5105290;28;20052;-69
2022/02/26 07:34:16;;;;;;;27.50;5.43;;;0.40;99.90;;;;;;5105429;28;20040;-69
2022/02/26 07:36:42;;;;;;;26.85;4.72;;;0.60;99.90;;;;;;5100229;28;20048;-69
2022/02/26 07:39:08;;;;;;;24.90;4.93;;;0.70;99.90;;;;;;5099505;28;20040;-69
2022/02/26 07:41:34;;;;;;;22.13;4.20;;;0.50;99.90;;;;;;5095404;28;20100;-69
2022/02/26 07:44:00;;;;;;;22.33;4.30;;;0.60;99.90;;;;;;5106599;28;20048;-69
2022/02/26 07:46:26;;;;;;;29.20;4.28;;;0.90;99.90;;;;;;5104458;28;20055;-69
2022/02/26 07:48:52;;;;;;;25.27;3.63;;;0.90;99.90;;;;;;5066444;28;20056;-70
2022/02/26 07:51:18;;;;;;;23.23;4.00;;;0.80;99.90;;;;;;5103988;28;20046;-70
2022/02/26 07:53:44;;;;;;;20.25;3.58;;;1.10;99.90;;;;;;5105041;28;20048;-70
2022/02/26 07:56:11;;;;;;;21.77;4.35;;;0.90;99.90;;;;;;5097936;28;20542;-73
2022/02/26 07:58:37;;;;;;;36.35;5.60;;;1.00;99.90;;;;;;5094284;28;20048;-72
2022/02/26 08:01:03;;;;;;;21.30;4.00;;;1.10;99.90;;;;;;5102738;28;20084;-71
2022/02/26 08:03:29;;;;;;;28.40;4.45;;;1.40;99.90;;;;;;5104009;28;20068;-70
2022/02/26 08:05:55;;;;;;;22.38;4.55;;;1.20;99.90;;;;;;5104959;28;20101;-71
2022/02/26 08:08:21;;;;;;;22.92;4.93;;;1.60;99.90;;;;;;5100334;28;20094;-71
2022/02/26 08:10:47;;;;;;;18.73;4.07;;;1.70;99.90;;;;;;5100207;28;20052;-72
2022/02/26 08:13:13;;;;;;;22.15;3.67;;;1.50;99.90;;;;;;5103080;28;20070;-72
2022/02/26 08:15:40;;;;;;;31.35;4.97;;;1.80;99.90;;;;;;5104772;28;20056;-72
2022/02/26 08:18:06;;;;;;;24.70;5.25;;;1.90;99.90;;;;;;5102418;28;20048;-72
2022/02/26 08:20:32;;;;;;;24.58;4.50;;;1.70;99.90;;;;;;5083038;28;20044;-69
2022/02/26 08:22:57;;;;;;;23.10;4.97;;;2.00;99.90;;;;;;5091690;28;20044;-69
2022/02/26 08:25:23;;;;;;;23.67;4.30;;;2.10;99.90;;;;;;5102960;28;20084;-71
2022/02/26 08:27:49;;;;;;;25.08;5.40;;;2.20;99.90;;;;;;5098355;28;20055;-71
2022/02/26 08:30:18;;;;;;;27.58;4.28;;;2.30;99.90;;;;;;5096807;28;20074;-71
2022/02/26 08:32:44;;;;;;;23.65;5.07;;;2.10;99.90;;;;;;5102785;28;20056;-71
2022/02/26 08:35:11;;;;;;;25.65;4.18;;;2.40;99.90;;;;;;5101369;28;20044;-71
2022/02/26 08:37:38;;;;;;;29.08;4.65;;;2.30;99.90;;;;;;5101682;28;20131;-70
2022/02/26 08:40:05;;;;;;;22.45;4.15;;;2.50;99.90;;;;;;5098581;28;20043;-71
2022/02/26 08:42:31;;;;;;;33.40;5.03;;;2.80;99.90;;;;;;5103197;28;20099;-69
2022/02/26 08:44:56;;;;;;;21.88;3.97;;;2.80;99.90;;;;;;5098785;28;20097;-71
2022/02/26 08:47:23;;;;;;;22.38;4.65;;;2.70;99.90;;;;;;5100312;28;20403;-71
2022/02/26 08:49:49;;;;;;;20.17;4.28;;;2.90;99.90;;;;;;5088055;28;20044;-72
2022/02/26 08:52:15;;;;;;;21.00;5.20;;;2.80;99.90;;;;;;5102539;28;20092;-71
2022/02/26 08:54:41;;;;;;;21.40;4.00;;;3.00;99.90;;;;;;5101623;28;20508;-71
2022/02/26 08:57:07;;;;;;;20.58;4.35;;;3.10;99.90;;;;;;5098245;28;20044;-72
2022/02/26 08:59:33;;;;;;;22.83;4.30;;;3.00;99.90;;;;;;5095837;28;20048;-71
2022/02/26 09:01:59;;;;;;;27.33;4.43;;;3.00;99.90;;;;;;5094477;28;20071;-71
2022/02/26 09:04:25;;;;;;;23.42;4.20;;;3.20;99.90;;;;;;5097068;28;20048;-71
2022/02/26 09:06:51;;;;;;;26.17;5.60;;;3.20;99.90;;;;;;5103159;28;20054;-70
2022/02/26 09:09:17;;;;;;;17.95;3.88;;;3.40;99.90;;;;;;5100817;28;20041;-70
2022/02/26 09:11:43;;;;;;;20.40;3.67;;;3.60;99.90;;;;;;5103814;28;20082;-70
2022/02/26 09:14:09;;;;;;;34.03;4.32;;;3.50;99.90;;;;;;5102249;28;20051;-70
2022/02/26 09:16:35;;;;;;;18.48;4.40;;;3.90;99.90;;;;;;5097428;28;20074;-70
2022/02/26 09:19:02;;;;;;;22.02;5.60;;;3.80;99.90;;;;;;5098876;28;20052;-70
2022/02/26 09:21:28;;;;;;;21.98;3.40;;;3.80;99.90;;;;;;5099722;28;20111;-71
2022/02/26 09:23:54;;;;;;;23.40;4.10;;;4.10;99.90;;;;;;5030834;28;21258;-69
2022/02/26 09:26:21;;;;;;;15.63;3.35;;;4.00;99.90;;;;;;5092645;28;20052;-70
2022/02/26 09:28:47;;;;;;;19.50;3.85;;;4.30;99.90;;;;;;5065876;28;20075;-70
2022/02/26 09:31:14;;;;;;;24.90;5.65;;;4.30;99.90;;;;;;5075553;28;20048;-70
2022/02/26 09:33:40;;;;;;;19.42;4.68;;;4.50;99.90;;;;;;5099102;28;20040;-70
2022/02/26 09:36:07;;;;;;;20.92;4.53;;;4.40;99.90;;;;;;5096081;28;20052;-70
2022/02/26 09:38:34;;;;;;;16.95;4.68;;;4.50;99.90;;;;;;5096175;28;20051;-70
2022/02/26 09:41:01;;;;;;;17.17;3.80;;;4.70;99.90;;;;;;5054976;28;20117;-71
2022/02/26 09:43:28;;;;;;;20.52;3.78;;;4.80;99.90;;;;;;5089631;28;20044;-72
2022/02/26 09:45:55;;;;;;;21.00;4.55;;;4.80;99.90;;;;;;5071377;28;20124;-71
2022/02/26 09:48:22;;;;;;;23.25;4.10;;;4.70;99.90;;;;;;5095092;28;20171;-71
2022/02/26 09:50:51;;;;;;;20.35;4.03;;;4.80;99.90;;;;;;5068687;28;20056;-74
2022/02/26 09:53:18;;;;;;;17.50;2.90;;;4.90;99.90;;;;;;5090625;28;20032;-73
2022/02/26 09:55:44;;;;;;;19.40;3.42;;;5.10;99.90;;;;;;5083425;28;20643;-71
2022/02/26 09:58:11;;;;;;;19.58;3.50;;;5.10;99.90;;;;;;5094831;28;20119;-72
2022/02/26 10:00:37;;;;;;;26.02;3.72;;;5.30;99.90;;;;;;5095214;28;20051;-73
2022/02/26 10:03:04;;;;;;;20.65;3.78;;;5.20;99.90;;;;;;5096110;28;20074;-72
2022/02/26 10:05:32;;;;;;;22.48;3.80;;;5.40;99.90;;;;;;5090786;28;20109;-73
2022/02/26 10:07:58;;;;;;;16.23;3.40;;;5.50;99.90;;;;;;5084817;28;20044;-72
2022/02/26 10:10:27;;;;;;;23.92;3.25;;;5.60;99.90;;;;;;5087433;28;20074;-72
2022/02/26 10:12:58;;;;;;;21.27;3.63;;;5.60;99.90;;;;;;5087776;28;20479;-73
2022/02/26 10:15:27;;;;;;;18.17;2.72;;;5.50;99.90;;;;;;5089725;28;20136;-73
2022/02/26 10:18:13;;;;;;;19.85;3.28;;;5.60;99.90;;;;;;5093013;28;20059;-73
2022/02/26 10:20:54;;;;;;;22.08;4.72;;;5.80;99.90;;;;;;5086812;28;20051;-73
2022/02/26 10:23:22;;;;;;;22.63;3.95;;;5.80;99.90;;;;;;5092339;28;20524;-73
2022/02/26 10:25:48;;;;;;;24.38;4.43;;;5.80;99.90;;;;;;5086260;28;20040;-73
2022/02/26 10:28:15;;;;;;;19.45;3.60;;;5.90;99.90;;;;;;5087937;28;20542;-73
2022/02/26 10:30:47;;;;;;;23.13;4.10;;;5.90;99.90;;;;;;5077471;28;20172;-73
2022/02/26 10:33:25;;;;;;;21.35;2.63;;;5.90;99.90;;;;;;5091995;28;20036;-73
2022/02/26 10:35:55;;;;;;;24.00;4.07;;;6.00;99.90;;;;;;5045150;28;20256;-73
2022/02/26 10:38:27;;;;;;;16.25;2.58;;;6.10;99.90;;;;;;5084092;28;20510;-73
2022/02/26 10:41:04;;;;;;;20.13;3.33;;;6.10;99.90;;;;;;5074089;28;20065;-73
2022/02/26 10:43:51;;;;;;;15.30;3.15;;;6.10;99.90;;;;;;5072938;28;20044;-73
2022/02/26 10:46:30;;;;;;;24.48;4.43;;;6.20;99.90;;;;;;5078646;28;20039;-73
2022/02/26 10:49:12;;;;;;;16.38;2.53;;;6.30;99.90;;;;;;5090368;28;20059;-73
2022/02/26 10:51:41;;;;;;;15.45;3.33;;;6.40;99.90;;;;;;5049744;28;20044;-73
2022/02/26 10:54:10;;;;;;;18.70;2.92;;;6.40;99.90;;;;;;5091456;28;20535;-73
2022/02/26 10:56:37;;;;;;;14.73;2.15;;;6.40;99.90;;;;;;5082220;28;20059;-72
2022/02/26 10:59:08;;;;;;;18.65;2.88;;;6.50;99.90;;;;;;5089495;28;20048;-72
2022/02/26 11:01:35;;;;;;;17.45;3.33;;;6.60;99.90;;;;;;5071252;28;20044;-72
2022/02/26 11:04:02;;;;;;;23.38;3.58;;;6.60;99.90;;;;;;5096424;28;20133;-72
2022/02/26 11:06:28;;;;;;;10.18;2.45;;;6.70;99.90;;;;;;5086202;28;20066;-72
2022/02/26 11:08:55;;;;;;;19.50;3.08;;;6.60;99.90;;;;;;5106429;28;20055;-73
2022/02/26 11:11:25;;;;;;;20.67;2.80;;;6.60;99.90;;;;;;5088644;28;20305;-72
2022/02/26 11:13:53;;;;;;;16.80;2.78;;;6.70;99.90;;;;;;5097269;28;20048;-73
2022/02/26 11:16:21;;;;;;;16.95;3.13;;;6.70;99.90;;;;;;5061129;28;20526;-73
2022/02/26 11:18:52;;;;;;;20.90;3.90;;;6.70;99.90;;;;;;5096460;28;20047;-71
2022/02/26 11:21:20;;;;;;;21.85;2.80;;;6.70;99.90;;;;;;5089586;28;20048;-72
2022/02/26 11:23:47;;;;;;;18.10;2.83;;;6.70;99.90;;;;;;5096933;28;20119;-72
2022/02/26 11:26:15;;;;;;;16.75;3.08;;;6.80;99.90;;;;;;5057100;28;20120;-72
2022/02/26 11:28:51;;;;;;;21.35;4.82;;;6.80;99.90;;;;;;5103810;28;20054;-73
2022/02/26 11:31:22;;;;;;;14.15;2.60;;;6.80;99.90;;;;;;5079208;28;20044;-72
2022/02/26 11:33:49;;;;;;;13.80;2.85;;;7.00;99.90;;;;;;5096459;28;20078;-73
2022/02/26 11:36:15;;;;;;;14.40;2.75;;;7.20;99.90;;;;;;5080608;28;20051;-73
2022/02/26 11:38:45;;;;;;;20.98;3.13;;;7.20;99.90;;;;;;5099819;28;20044;-73
2022/02/26 11:41:18;;;;;;;19.85;3.10;;;7.30;99.90;;;;;;5086873;28;20092;-73
2022/02/26 11:43:47;;;;;;;16.58;2.92;;;7.30;99.90;;;;;;5100644;28;20040;-73
2022/02/26 11:46:21;;;;;;;14.05;2.80;;;7.40;99.90;;;;;;5080285;28;20048;-74
2022/02/26 11:48:48;;;;;;;15.18;2.40;;;7.70;99.90;;;;;;5094060;28;20101;-73
2022/02/26 11:51:15;;;;;;;12.30;2.50;;;7.90;99.90;;;;;;5067334;28;20047;-73
2022/02/26 11:53:45;;;;;;;17.85;2.72;;;8.20;99.90;;;;;;5098622;28;20059;-73
2022/02/26 11:56:12;;;;;;;11.52;3.15;;;8.30;99.90;;;;;;5096496;28;20052;-73
2022/02/26 11:58:38;;;;;;;18.48;2.50;;;8.40;99.90;;;;;;5093750;28;20052;-73
2022/02/26 12:01:16;;;;;;;20.67;2.45;;;8.30;99.90;;;;;;5078125;28;20052;-73
2022/02/26 12:03:42;;;;;;;12.02;3.10;;;8.20;99.90;;;;;;5093834;28;20047;-73
2022/02/26 12:06:07;;;;;;;14.35;3.05;;;8.20;99.90;;;;;;5080819;28;20059;-73
2022/02/26 12:08:40;;;;;;;25.70;7.88;;;8.00;99.90;;;;;;5068556;28;20036;-73
2022/02/26 12:11:10;;;;;;;15.75;3.15;;;8.00;99.90;;;;;;5062847;28;20075;-73
2022/02/26 12:13:39;;;;;;;18.23;2.78;;;7.90;99.90;;;;;;5087770;28;20157;-73
2022/02/26 12:16:28;;;;;;;15.80;2.90;;;7.90;99.90;;;;;;5075492;28;20044;-73
2022/02/26 12:19:09;;;;;;;11.90;2.47;;;7.90;99.90;;;;;;5090691;28;20442;-73
2022/02/26 12:21:56;;;;;;;9.90;2.40;;;8.00;99.90;;;;;;5066215;28;20451;-73
2022/02/26 12:24:25;;;;;;;12.73;2.72;;;8.10;99.90;;;;;;5076003;28;20084;-73
2022/02/26 12:27:06;;;;;;;19.63;3.83;;;8.20;99.90;;;;;;5069881;28;20036;-74
2022/02/26 12:29:44;;;;;;;11.25;2.55;;;8.20;99.90;;;;;;5080027;28;20048;-72
2022/02/26 12:32:14;;;;;;;15.23;2.92;;;8.30;99.90;;;;;;5090545;28;20109;-72
2022/02/26 12:34:47;;;;;;;18.55;2.72;;;8.30;99.90;;;;;;5087173;28;20078;-72
2022/02/26 12:37:17;;;;;;;17.80;3.15;;;8.40;99.90;;;;;;5092426;28;20050;-73
2022/02/26 12:39:52;;;;;;;10.38;2.03;;;8.50;99.90;;;;;;5085453;28;20097;-73
2022/02/26 12:42:20;;;;;;;19.58;3.25;;;8.90;99.90;;;;;;5097553;28;20040;-73
2022/02/26 12:44:47;;;;;;;12.30;2.72;;;9.20;99.90;;;;;;5086012;28;20043;-73